Aérodrome :
LOGIN :

S'inscrire | Disclaimer

   EN    FR    IT 

 










Légende :    VFR   VFR Marginal   IFR   IFR Intensif   IFR Très Intensif
Visi : 
Plafond : 
>= 8 km
>= 3000ft
5 à 8 km
1000 à 3000 ft
1500m à 5 km
500 à 1000 ft
800 à 1500m
200 à 500 ft
< 800m
< 200 ft
Symboles :   Orages  Brouillard  Fortes neiges  Fortes précipitations  Vent > 20 kt
SIGMETs :   Divers  Orages  Givrage  Turbulence  Onde Orograph.  Cendres Volcan.






- Altitude de l'aérodrome : 79 ft
- Code IATA : SPU


LDSP - Split

DERNIER METAR :
  • 291630Z 31006KT 260V010 9999 FEW060 11/05 Q1011 NOSIG

METARs EXPIRÉS :
  • 291600Z 27010KT 9999 FEW045 13/05 Q1010 NOSIG
  • 291530Z 27012KT 9999 FEW035 14/05 Q1010 NOSIG
  • 291500Z 29009KT 9999 FEW035 14/05 Q1010 NOSIG
  • 291430Z 29014KT 9999 FEW035 14/05 Q1010 NOSIG
  • 291400Z 28012KT 240V310 9999 FEW035 14/06 Q1009 NOSIG

TAF TAF LDSP
Valide du 29 à 12h jusqu'au 30 à 12h UTC


291125Z 2912/3012 35006KT 9999 FEW030 SCT045 TX14/2912Z TN07/3005Z
PROB30
TEMPO 2913/2917 29010KT TS FEW030CB SCT040
TEMPO 3003/3008 05010KT



MET'MAP, la Météo Aéronautique d'un coup d'oeil ! - Copyright ORBIFLY Décembre 2007 - Disclaimer

ORBIFLY MET'MAP TEAM :

Programmation & Développement : Alexandra Zaïnal
Sur une idée originale de : Baudouin d'Aumeries
Assistance à la programmation : Marc-Olivier Méhu
Soutien technique & logistique : Manuel Goepfert

Contact : metmap@orbifly.com




SOURCES & CREDITS :

   NOAA